| time (UTC) | temp F | wind direction | speed knots | gust knots | rain 1hr in | rain 24hr in | rain mn in | humidity % | barometer mb |
| 20260506114504 | 56 | 212 | 0.9 | 3.5 | 0.00 | 0.00 | 0.00 | 49 | 1012.8 |
| 20260506113604 | 56 | 249 | 0.9 | 6.1 | 0.00 | 0.00 | 0.00 | 51 | 1012.6 |
| 20260506112918 | 54 | 261 | 2.6 | 6.1 | 0.00 | 0.00 | 0.00 | 54 | 1012.9 |
| 20260506111803 | 56 | 225 | 1.7 | 5.2 | 0.00 | 0.00 | 0.00 | 53 | 1012.9 |
| 20260506110904 | 55 | 286 | 2.6 | 7.0 | 0.00 | 0.01 | 0.00 | 57 | 1012.8 |
| 20260506110218 | 54 | 279 | 2.6 | 5.2 | 0.00 | 0.01 | 0.00 | 58 | 1012.8 |
| 20260506105404 | 54 | 281 | 2.6 | 6.1 | 0.00 | 0.01 | 0.00 | 58 | 1012.9 |
| 20260506104719 | 54 | 273 | 1.7 | 6.1 | 0.00 | 0.04 | 0.00 | 57 | 1012.9 |
| 20260506103604 | 54 | 275 | 2.6 | 5.2 | 0.00 | 0.04 | 0.00 | 56 | 1012.9 |
| 20260506102917 | 54 | 276 | 2.6 | 5.2 | 0.00 | 0.04 | 0.00 | 57 | 1013.0 |
| 20260506101803 | 54 | 278 | 1.7 | 7.0 | 0.00 | 0.04 | 0.00 | 58 | 1013.1 |
| 20260506100908 | 53 | 275 | 2.6 | 7.0 | 0.00 | 0.04 | 0.00 | 57 | 1013.2 |
| 20260506100005 | 53 | 263 | 2.6 | 6.1 | 0.00 | 0.04 | 0.00 | 58 | 1013.2 |
| 20260506095404 | 53 | 270 | 2.6 | 5.2 | 0.00 | 0.04 | 0.00 | 56 | 1013.4 |
| 20260506094504 | 53 | 260 | 2.6 | 5.2 | 0.00 | 0.04 | 0.00 | 56 | 1013.3 |
| 20260506093818 | 53 | 257 | 2.6 | 5.2 | 0.00 | 0.04 | 0.00 | 56 | 1013.3 |
| 20260506092704 | 53 | 256 | 2.6 | 5.2 | 0.00 | 0.04 | 0.00 | 58 | 1013.4 |
| 20260506091805 | 53 | 227 | 1.7 | 5.2 | 0.00 | 0.04 | 0.00 | 57 | 1013.4 |
| 20260506090903 | 54 | 235 | 1.7 | 5.2 | 0.00 | 0.04 | 0.00 | 55 | 1013.4 |
| 20260506090004 | 55 | 176 | 0.9 | 3.5 | 0.00 | 0.04 | 0.00 | 51 | 1013.6 |
| 20260506085403 | 55 | 97 | 0.9 | 2.6 | 0.00 | 0.04 | 0.00 | 54 | 1013.6 |
| 20260506084504 | 54 | 83 | 0.9 | 2.6 | 0.00 | 0.04 | 0.00 | 58 | 1013.6 |
| 20260506083604 | 53 | 70 | 0.9 | 1.7 | 0.00 | 0.04 | 0.00 | 58 | 1013.5 |
| 20260506082704 | 52 | 93 | 0.9 | 1.7 | 0.00 | 0.04 | 0.00 | 61 | 1013.7 |
| 20260506081804 | 50 | 77 | 0.9 | 1.7 | 0.00 | 0.04 | 0.00 | 64 | 1013.8 |
| 20260506080905 | 50 | 162 | 0.9 | 2.6 | 0.00 | 0.04 | 0.00 | 64 | 1013.9 |
| 20260506072918 | 48 | 218 | 0.9 | 1.7 | 0.00 | 0.04 | 0.00 | 63 | 1013.8 |
| 20260506071804 | 49 | 219 | 0.0 | 1.7 | 0.00 | 0.04 | 0.00 | 64 | 1013.8 |
| 20260506071119 | 49 | 218 | 0.0 | 1.7 | 0.00 | 0.04 | 0.00 | 64 | 1014.1 |
| 20260506061804 | 45 | 173 | 0.0 | 0.9 | 0.00 | 0.04 | 0.00 | 78 | 1014.0 |
| 20260506060904 | 44 | 149 | 0.0 | 0.9 | 0.00 | 0.04 | 0.00 | 78 | 1014.0 |
| 20260506050904 | 43 | 96 | 0.0 | 0.9 | 0.00 | 0.04 | 0.00 | 79 | 1014.0 |
| 20260506044503 | 42 | 124 | 0.9 | 1.7 | 0.00 | 0.04 | 0.00 | 80 | 1014.0 |
| 20260506043604 | 42 | 105 | 0.0 | 0.9 | 0.00 | 0.04 | 0.00 | 81 | 1014.0 |
| 20260506042917 | 42 | 113 | 0.9 | 1.7 | 0.00 | 0.04 | 0.00 | 81 | 1014.1 |
| 20260506041804 | 42 | 108 | 0.9 | 1.7 | 0.00 | 0.04 | 0.00 | 82 | 1014.1 |
| 20260506040903 | 41 | 88 | 0.0 | 1.7 | 0.00 | 0.04 | 0.00 | 84 | 1014.1 |
| 20260506040004 | 39 | 87 | 0.0 | 1.7 | 0.00 | 0.04 | 0.00 | 85 | 1014.2 |
| 20260506035403 | 39 | 85 | 0.9 | 1.7 | 0.00 | 0.04 | 0.00 | 85 | 1014.2 |
| 20260506034503 | 39 | 81 | 0.9 | 1.7 | 0.00 | 0.04 | 0.00 | 85 | 1014.0 |
| 20260506033604 | 39 | 74 | 0.0 | 0.9 | 0.00 | 0.04 | 0.00 | 85 | 1014.4 |
| 20260506032703 | 40 | 132 | 0.0 | 0.9 | 0.00 | 0.04 | 0.00 | 84 | 1014.3 |
| 20260506032020 | 40 | 120 | 0.0 | 0.9 | 0.00 | 0.04 | 0.00 | 84 | 1014.6 |
| 20260506030903 | 40 | 91 | 0.0 | 1.7 | 0.00 | 0.04 | 0.00 | 84 | 1014.4 |
| 20260506030004 | 41 | 122 | 0.9 | 1.7 | 0.00 | 0.04 | 0.00 | 84 | 1014.4 |
| 20260506025404 | 41 | 134 | 0.9 | 0.9 | 0.00 | 0.04 | 0.00 | 85 | 1014.4 |
| 20260506024503 | 41 | 116 | 0.9 | 1.7 | 0.00 | 0.04 | 0.00 | 84 | 1014.3 |
| 20260506023817 | 42 | 117 | 0.0 | 1.7 | 0.00 | 0.04 | 0.00 | 84 | 1014.5 |
| 20260506022704 | 41 | 150 | 0.0 | 1.7 | 0.00 | 0.04 | 0.00 | 84 | 1014.4 |
| 20260506021804 | 42 | 157 | 0.0 | 1.7 | 0.00 | 0.04 | 0.00 | 84 | 1014.5 |
| 20260506020904 | 42 | 125 | 0.9 | 1.7 | 0.00 | 0.04 | 0.00 | 84 | 1014.4 |
| 20260506020004 | 41 | 132 | 0.0 | 0.9 | 0.00 | 0.04 | 0.00 | 85 | 1014.5 |
| 20260506015403 | 41 | 108 | 0.0 | 1.7 | 0.00 | 0.04 | 0.00 | 84 | 1014.3 |
| 20260506014503 | 41 | 114 | 0.9 | 1.7 | 0.00 | 0.04 | 0.00 | 83 | 1014.6 |
| 20260506013603 | 42 | 169 | 0.9 | 1.7 | 0.00 | 0.04 | 0.00 | 82 | 1014.7 |
| 20260506012704 | 42 | 116 | 0.0 | 0.9 | 0.00 | 0.04 | 0.00 | 82 | 1014.6 |
| 20260506011803 | 43 | 63 | 0.0 | 0.9 | 0.00 | 0.04 | 0.00 | 81 | 1014.7 |
| 20260506011118 | 42 | 78 | 0.0 | 0.9 | 0.00 | 0.04 | 0.00 | 82 | 1014.7 |
| 20260506010218 | 43 | 70 | 0.0 | 1.7 | 0.00 | 0.04 | 0.00 | 81 | 1014.6 |
| 20260506005404 | 43 | 27 | 0.0 | 2.6 | 0.00 | 0.04 | 0.00 | 82 | 1014.7 |
| 20260506004719 | 43 | 250 | 0.0 | 2.6 | 0.00 | 0.04 | 0.00 | 83 | 1014.8 |
| 20260506003604 | 42 | 202 | 0.0 | 0.9 | 0.00 | 0.04 | 0.00 | 84 | 1014.7 |
| 20260506002917 | 42 | 203 | 0.0 | 1.7 | 0.00 | 0.04 | 0.00 | 83 | 1015.0 |
| 20260506002017 | 42 | 0 | 0.0 | 0.0 | 0.00 | 0.04 | 0.00 | 83 | 1014.8 |
| 20260506000908 | 43 | 0 | 0.0 | 0.0 | 0.00 | 0.04 | 0.00 | 83 | 1014.8 |
| 20260506000003 | 42 | 253 | 0.0 | 0.9 | 0.00 | 0.04 | 0.00 | 82 | 1015.2 |
| 20260505235403 | 43 | 253 | 0.0 | 0.9 | 0.00 | 0.04 | 0.00 | 81 | 1015.2 |
| 20260505234503 | 43 | 0 | 0.0 | 1.7 | 0.00 | 0.04 | 0.00 | 80 | 1015.3 |
| 20260505233603 | 44 | 245 | 0.0 | 1.7 | 0.00 | 0.04 | 0.00 | 79 | 1015.1 |
| 20260505232704 | 44 | 247 | 0.0 | 0.9 | 0.00 | 0.04 | 0.00 | 78 | 1015.0 |
| 20260505232017 | 46 | 273 | 0.0 | 1.7 | 0.00 | 0.04 | 0.00 | 77 | 1015.4 |
| 20260505230903 | 47 | 285 | 1.7 | 5.2 | 0.00 | 0.04 | 0.00 | 78 | 1015.2 |
| 20260505230220 | 47 | 282 | 2.6 | 7.0 | 0.00 | 0.04 | 0.00 | 78 | 1015.5 |
| 20260505225404 | 47 | 289 | 2.6 | 7.0 | 0.00 | 0.04 | 0.04 | 78 | 1015.2 |
| 20260505224503 | 47 | 291 | 2.6 | 7.0 | 0.00 | 0.04 | 0.04 | 78 | 1015.5 |
| 20260505223603 | 47 | 276 | 2.6 | 6.1 | 0.00 | 0.04 | 0.04 | 78 | 1015.5 |
| 20260505222704 | 47 | 285 | 2.6 | 5.2 | 0.00 | 0.04 | 0.04 | 78 | 1015.4 |
| 20260505222018 | 47 | 275 | 2.6 | 7.0 | 0.00 | 0.04 | 0.04 | 78 | 1015.7 |
| 20260505220903 | 47 | 289 | 2.6 | 7.0 | 0.00 | 0.04 | 0.04 | 79 | 1015.5 |
| 20260505220003 | 47 | 266 | 2.6 | 6.1 | 0.00 | 0.04 | 0.04 | 79 | 1015.8 |
| 20260505215403 | 46 | 276 | 2.6 | 6.1 | 0.00 | 0.04 | 0.04 | 79 | 1015.6 |
| 20260505214503 | 47 | 278 | 2.6 | 5.2 | 0.00 | 0.04 | 0.04 | 78 | 1015.8 |
| 20260505213604 | 47 | 283 | 1.7 | 5.2 | 0.00 | 0.04 | 0.04 | 79 | 1015.9 |
| 20260505212703 | 47 | 289 | 2.6 | 6.1 | 0.00 | 0.04 | 0.04 | 78 | 1015.7 |
| 20260505211803 | 47 | 289 | 3.5 | 6.1 | 0.00 | 0.04 | 0.04 | 77 | 1015.8 |
| 20260505210903 | 48 | 280 | 3.5 | 7.8 | 0.00 | 0.04 | 0.04 | 77 | 1015.7 |
| 20260505210004 | 48 | 280 | 3.5 | 7.8 | 0.00 | 0.04 | 0.04 | 76 | 1015.7 |
| 20260505205403 | 48 | 272 | 3.5 | 7.8 | 0.00 | 0.04 | 0.04 | 76 | 1015.5 |
| 20260505204717 | 49 | 261 | 3.5 | 7.8 | 0.00 | 0.04 | 0.04 | 76 | 1015.5 |
| 20260505203603 | 49 | 279 | 4.3 | 8.7 | 0.00 | 0.04 | 0.04 | 76 | 1015.5 |
| 20260505202703 | 49 | 272 | 3.5 | 8.7 | 0.00 | 0.04 | 0.04 | 75 | 1015.5 |
| 20260505202018 | 49 | 284 | 4.3 | 8.7 | 0.00 | 0.04 | 0.04 | 74 | 1015.4 |
| 20260505200903 | 49 | 276 | 4.3 | 8.7 | 0.00 | 0.04 | 0.04 | 72 | 1015.7 |
| 20260505200003 | 49 | 277 | 4.3 | 9.6 | 0.00 | 0.04 | 0.04 | 70 | 1015.5 |
| 20260505195403 | 50 | 273 | 4.3 | 8.7 | 0.00 | 0.04 | 0.04 | 71 | 1015.6 |
| 20260505194503 | 50 | 290 | 4.3 | 8.7 | 0.00 | 0.04 | 0.04 | 69 | 1015.6 |
| 20260505193603 | 50 | 282 | 4.3 | 8.7 | 0.00 | 0.04 | 0.04 | 70 | 1015.8 |
| 20260505192704 | 51 | 276 | 3.5 | 7.0 | 0.00 | 0.04 | 0.04 | 68 | 1015.5 |
| 20260505191804 | 51 | 280 | 3.5 | 7.8 | 0.00 | 0.04 | 0.04 | 68 | 1015.4 |
| 20260505190903 | 51 | 272 | 3.5 | 7.8 | 0.00 | 0.04 | 0.04 | 69 | 1015.3 |
| 20260505190004 | 52 | 274 | 3.5 | 7.8 | 0.00 | 0.04 | 0.04 | 70 | 1015.4 |
| 20260505185408 | 52 | 272 | 3.5 | 7.0 | 0.00 | 0.04 | 0.04 | 69 | 1015.5 |
| 20260505184503 | 52 | 281 | 3.5 | 7.0 | 0.00 | 0.04 | 0.04 | 69 | 1015.5 |
| 20260505183604 | 52 | 283 | 4.3 | 8.7 | 0.00 | 0.04 | 0.04 | 68 | 1015.3 |
| 20260505182703 | 52 | 267 | 3.5 | 9.6 | 0.00 | 0.04 | 0.04 | 68 | 1015.4 |
| 20260505182017 | 53 | 260 | 3.5 | 8.7 | 0.00 | 0.04 | 0.04 | 67 | 1015.4 |
| 20260505180908 | 54 | 251 | 4.3 | 8.7 | 0.00 | 0.04 | 0.04 | 66 | 1015.4 |
| 20260505180004 | 54 | 269 | 3.5 | 7.0 | 0.00 | 0.04 | 0.04 | 64 | 1015.5 |
| 20260505175404 | 54 | 254 | 3.5 | 7.0 | 0.00 | 0.04 | 0.04 | 64 | 1015.4 |
| 20260505174503 | 54 | 266 | 3.5 | 7.0 | 0.00 | 0.04 | 0.04 | 66 | 1015.6 |
| 20260505173604 | 54 | 275 | 3.5 | 7.0 | 0.00 | 0.04 | 0.04 | 67 | 1015.4 |
| 20260505172704 | 55 | 271 | 3.5 | 7.8 | 0.00 | 0.04 | 0.04 | 66 | 1015.5 |
| 20260505171804 | 55 | 270 | 2.6 | 7.0 | 0.00 | 0.04 | 0.04 | 65 | 1015.4 |
| 20260505171117 | 56 | 245 | 2.6 | 7.8 | 0.00 | 0.04 | 0.04 | 63 | 1015.5 |
| 20260505170003 | 56 | 262 | 2.6 | 7.0 | 0.00 | 0.04 | 0.04 | 63 | 1015.7 |
| 20260505165403 | 56 | 239 | 2.6 | 7.8 | 0.00 | 0.04 | 0.04 | 62 | 1015.5 |
| 20260505164504 | 57 | 246 | 2.6 | 7.8 | 0.00 | 0.04 | 0.04 | 61 | 1015.7 |
| 20260505163603 | 57 | 272 | 1.7 | 6.1 | 0.00 | 0.04 | 0.04 | 60 | 1015.6 |
| 20260505162703 | 56 | 283 | 1.7 | 6.1 | 0.00 | 0.04 | 0.04 | 60 | 1015.6 |
| 20260505161804 | 56 | 264 | 2.6 | 8.7 | 0.00 | 0.04 | 0.04 | 61 | 1015.6 |
| 20260505160903 | 57 | 246 | 2.6 | 7.8 | 0.00 | 0.04 | 0.04 | 60 | 1015.6 |
| 20260505152703 | 57 | 251 | 2.6 | 8.7 | 0.00 | 0.04 | 0.04 | 64 | 1015.8 |
| 20260505151804 | 57 | 257 | 2.6 | 7.8 | 0.00 | 0.04 | 0.04 | 63 | 1015.6 |
| 20260505150903 | 57 | 244 | 2.6 | 7.0 | 0.00 | 0.04 | 0.04 | 64 | 1015.7 |
| 20260505130217 | 54 | 273 | 2.6 | 6.1 | 0.00 | 0.04 | 0.04 | 77 | 1016.2 |
| 20260505124503 | 52 | 254 | 1.7 | 5.2 | 0.00 | 0.04 | 0.04 | 81 | 1016.3 |
| 20260505123603 | 52 | 285 | 1.7 | 3.5 | 0.00 | 0.04 | 0.04 | 84 | 1016.4 |
| 20260505122704 | 51 | 271 | 1.7 | 3.5 | 0.00 | 0.04 | 0.04 | 85 | 1016.1 |
| 20260505122018 | 51 | 281 | 1.7 | 3.5 | 0.00 | 0.04 | 0.04 | 85 | 1016.3 |
| 20260505120903 | 51 | 284 | 2.6 | 6.1 | 0.01 | 0.04 | 0.04 | 87 | 1016.4 |
| 20260505120004 | 50 | 301 | 3.5 | 7.8 | 0.01 | 0.04 | 0.04 | 87 | 1016.4 |
| 20260505115403 | 50 | 286 | 3.5 | 8.7 | 0.01 | 0.04 | 0.04 | 87 | 1016.4 |